Time;durP1;ratioP1;P1;durP2;ratioP2;P2;SDS_P1;SDS_P2;PMS_P1;PMS_P2;Temp;Humidity;BMP_temperature;BMP_pressure;BME280_temperature;BME280_humidity;BME280_pressure;Samples;Min_cycle;Max_cycle;Signal;HPM_P1;HPM_P2
2022/04/08 00:01:28;;;;;;;10.98;2.42;;;6.00;99.90;;;;;;5052049;28;20037;-73
2022/04/08 00:03:55;;;;;;;5.97;1.20;;;6.00;99.90;;;;;;5052235;28;20049;-73
2022/04/08 00:06:22;;;;;;;9.13;1.52;;;5.90;99.90;;;;;;5051191;28;20048;-73
2022/04/08 00:08:48;;;;;;;8.40;1.52;;;5.90;99.90;;;;;;5052124;28;20498;-73
2022/04/08 00:11:14;;;;;;;8.90;1.98;;;5.90;99.90;;;;;;5050624;28;20044;-73
2022/04/08 00:13:40;;;;;;;10.13;1.98;;;5.90;99.90;;;;;;5050847;28;20115;-73
2022/04/08 00:16:07;;;;;;;7.78;1.98;;;5.90;99.90;;;;;;5050720;28;20032;-72
2022/04/08 00:18:33;;;;;;;12.88;3.85;;;5.90;99.90;;;;;;5050688;28;20506;-72
2022/04/08 00:20:59;;;;;;;12.93;2.10;;;5.90;99.90;;;;;;5050467;28;20045;-73
2022/04/08 00:23:25;;;;;;;7.38;2.30;;;5.90;99.90;;;;;;5050982;28;20044;-73
2022/04/08 00:25:51;;;;;;;6.75;1.60;;;5.90;99.90;;;;;;5050685;28;20048;-73
2022/04/08 00:28:17;;;;;;;6.00;1.92;;;5.90;99.90;;;;;;5050466;28;20037;-73
2022/04/08 00:30:42;;;;;;;12.55;2.58;;;5.90;99.90;;;;;;5050335;28;20037;-73
2022/04/08 00:33:08;;;;;;;5.18;1.27;;;5.90;99.90;;;;;;5050715;28;20398;-73
2022/04/08 00:35:33;;;;;;;6.88;1.35;;;5.80;99.90;;;;;;5050837;28;20033;-73
2022/04/08 00:37:59;;;;;;;6.65;0.90;;;5.80;99.90;;;;;;5050754;28;20048;-73
2022/04/08 00:40:25;;;;;;;6.90;1.20;;;5.70;99.90;;;;;;5050476;28;20048;-73
2022/04/08 00:42:50;;;;;;;3.22;0.95;;;5.70;99.90;;;;;;5050469;28;20037;-73
2022/04/08 00:45:16;;;;;;;3.47;0.55;;;5.60;99.90;;;;;;5050949;28;20037;-73
2022/04/08 00:47:44;;;;;;;3.42;0.70;;;5.40;99.90;;;;;;5050257;28;20490;-73
2022/04/08 00:50:11;;;;;;;5.60;0.85;;;5.30;99.90;;;;;;5050100;28;20041;-73
2022/04/08 00:52:40;;;;;;;5.07;0.80;;;5.20;99.90;;;;;;5033752;28;20044;-73
2022/04/08 00:55:06;;;;;;;7.45;0.77;;;5.10;99.90;;;;;;5050435;28;20116;-73
2022/04/08 00:57:33;;;;;;;7.22;1.70;;;5.10;99.90;;;;;;5050527;28;20037;-73
2022/04/08 01:00:07;;;;;;;3.40;0.98;;;5.10;99.90;;;;;;5050135;28;20048;-72
2022/04/08 01:02:33;;;;;;;4.35;1.00;;;5.10;99.90;;;;;;5033900;28;20076;-73
2022/04/08 01:04:58;;;;;;;5.03;1.00;;;5.10;99.90;;;;;;5050302;28;20498;-73
2022/04/08 01:07:24;;;;;;;4.25;1.23;;;5.10;99.90;;;;;;5050459;28;20533;-73
2022/04/08 01:09:51;;;;;;;6.75;1.15;;;5.10;99.90;;;;;;5052025;28;20040;-73
2022/04/08 01:12:17;;;;;;;12.73;2.22;;;5.10;99.90;;;;;;5054086;28;20043;-73
2022/04/08 01:14:42;;;;;;;12.30;2.42;;;5.10;99.90;;;;;;5054157;28;20111;-73
2022/04/08 01:17:08;;;;;;;10.95;2.00;;;5.00;99.90;;;;;;5053970;28;20489;-73
2022/04/08 01:19:34;;;;;;;13.25;2.42;;;5.00;99.90;;;;;;5054153;28;20132;-73
2022/04/08 01:21:59;;;;;;;8.15;1.95;;;4.90;99.90;;;;;;5054088;28;20043;-73
2022/04/08 01:24:28;;;;;;;9.75;1.75;;;4.80;99.90;;;;;;5054009;28;20047;-72
2022/04/08 01:26:53;;;;;;;13.32;3.08;;;4.70;99.90;;;;;;5053858;28;20041;-72
2022/04/08 01:29:19;;;;;;;8.48;2.15;;;4.70;99.90;;;;;;5050257;28;20117;-72
2022/04/08 01:31:45;;;;;;;11.45;2.13;;;4.70;99.90;;;;;;5051540;28;20132;-73
2022/04/08 01:34:12;;;;;;;8.27;1.88;;;4.60;99.90;;;;;;5053801;28;20032;-73
2022/04/08 01:36:38;;;;;;;8.00;1.75;;;4.60;99.90;;;;;;5053976;28;20490;-73
2022/04/08 01:39:05;;;;;;;14.55;1.67;;;4.60;99.90;;;;;;5037215;28;20123;-72
2022/04/08 01:41:31;;;;;;;13.30;2.50;;;4.60;99.90;;;;;;5036839;28;20130;-73
2022/04/08 01:43:57;;;;;;;10.55;1.73;;;4.60;99.90;;;;;;5053570;28;20041;-73
2022/04/08 01:46:23;;;;;;;8.90;1.80;;;4.50;99.90;;;;;;5053578;28;20056;-73
2022/04/08 01:48:51;;;;;;;11.90;2.22;;;4.50;99.90;;;;;;5053481;28;20041;-72
2022/04/08 01:51:16;;;;;;;10.43;2.08;;;4.50;99.90;;;;;;5053525;28;20394;-73
2022/04/08 01:53:42;;;;;;;9.60;1.83;;;4.50;99.90;;;;;;5054794;28;20112;-72
2022/04/08 01:56:07;;;;;;;15.23;2.35;;;4.50;99.90;;;;;;5053394;28;20044;-72
2022/04/08 01:58:33;;;;;;;8.77;2.65;;;4.60;99.90;;;;;;5053311;28;20565;-72
2022/04/08 02:00:59;;;;;;;5.22;1.50;;;4.60;99.90;;;;;;5053167;28;20498;-72
2022/04/08 02:03:25;;;;;;;5.78;1.60;;;4.60;99.90;;;;;;5054658;28;20041;-72
2022/04/08 02:05:51;;;;;;;6.85;1.40;;;4.60;99.90;;;;;;5054558;28;20495;-72
2022/04/08 02:08:17;;;;;;;8.00;2.22;;;4.60;99.90;;;;;;5053346;28;20041;-72
2022/04/08 02:10:42;;;;;;;10.57;2.17;;;4.50;99.90;;;;;;5052871;28;20041;-73
2022/04/08 02:13:08;;;;;;;16.63;3.17;;;4.60;99.90;;;;;;5053388;28;20041;-73
2022/04/08 02:15:34;;;;;;;7.43;1.38;;;4.50;99.90;;;;;;5053041;28;20652;-73
2022/04/08 02:18:01;;;;;;;10.13;1.58;;;4.50;99.90;;;;;;5053339;28;20120;-72
2022/04/08 02:20:29;;;;;;;11.35;1.60;;;4.50;99.90;;;;;;5052734;28;20452;-72
2022/04/08 02:22:55;;;;;;;7.95;1.75;;;4.50;99.90;;;;;;5052992;28;20083;-73
2022/04/08 02:25:20;;;;;;;13.10;2.58;;;4.50;99.90;;;;;;5052911;28;20077;-72
2022/04/08 02:27:46;;;;;;;6.32;1.75;;;4.50;99.90;;;;;;5052627;28;20028;-73
2022/04/08 02:30:15;;;;;;;12.75;2.13;;;4.50;99.90;;;;;;5053962;28;20625;-73
2022/04/08 02:32:40;;;;;;;7.03;1.67;;;4.50;99.90;;;;;;5053084;28;20537;-73
2022/04/08 02:35:06;;;;;;;11.65;1.80;;;4.60;99.90;;;;;;5036219;28;20068;-73
2022/04/08 02:37:32;;;;;;;9.25;1.63;;;4.50;99.90;;;;;;5052874;28;20036;-73
2022/04/08 02:39:58;;;;;;;14.75;2.90;;;4.60;99.90;;;;;;5052707;28;20049;-73
2022/04/08 02:42:23;;;;;;;11.93;1.80;;;4.60;99.90;;;;;;5052794;28;20033;-73
2022/04/08 02:44:49;;;;;;;10.60;2.55;;;4.70;99.90;;;;;;5035946;28;20070;-73
2022/04/08 02:47:14;;;;;;;8.77;1.90;;;4.60;99.90;;;;;;5052438;28;20067;-73
2022/04/08 02:49:40;;;;;;;13.00;1.67;;;4.50;99.90;;;;;;5035778;28;20118;-73
2022/04/08 02:52:06;;;;;;;5.40;1.27;;;4.40;99.90;;;;;;5052160;28;20158;-73
2022/04/08 02:54:31;;;;;;;4.20;1.35;;;4.40;99.90;;;;;;5052394;28;20514;-73
2022/04/08 02:56:57;;;;;;;7.88;1.75;;;4.40;99.90;;;;;;5035814;28;20033;-73
2022/04/08 02:59:22;;;;;;;5.97;1.85;;;4.30;99.90;;;;;;5052245;28;20040;-73
2022/04/08 03:01:48;;;;;;;6.60;1.52;;;4.30;99.90;;;;;;5051962;28;20498;-73
2022/04/08 03:04:14;;;;;;;4.85;1.17;;;4.20;99.90;;;;;;5052051;28;20402;-73
2022/04/08 03:06:40;;;;;;;5.78;1.60;;;4.20;99.90;;;;;;5053310;28;20043;-73
2022/04/08 03:09:06;;;;;;;8.80;1.70;;;4.10;99.90;;;;;;5051793;28;20052;-73
2022/04/08 03:11:32;;;;;;;5.40;1.75;;;4.10;99.90;;;;;;5051890;28;20048;-73
2022/04/08 03:14:00;;;;;;;9.30;2.45;;;4.10;99.90;;;;;;5053433;28;20043;-73
2022/04/08 03:16:26;;;;;;;6.95;2.05;;;4.10;99.90;;;;;;5051887;28;20041;-73
2022/04/08 03:18:52;;;;;;;7.25;2.08;;;4.10;99.90;;;;;;5035317;28;20052;-73
2022/04/08 03:21:17;;;;;;;10.23;3.10;;;4.00;99.90;;;;;;5051469;28;20044;-73
2022/04/08 03:23:44;;;;;;;5.53;1.50;;;4.00;99.90;;;;;;5051796;28;20145;-73
2022/04/08 03:26:10;;;;;;;9.73;2.53;;;4.00;99.90;;;;;;5051783;28;20451;-72
2022/04/08 03:28:36;;;;;;;9.18;2.42;;;4.00;99.90;;;;;;5051619;28;20079;-73
2022/04/08 03:31:01;;;;;;;10.00;2.15;;;4.00;99.90;;;;;;5051622;28;20470;-73
2022/04/08 03:33:27;;;;;;;8.68;1.73;;;4.00;99.90;;;;;;5052215;28;20040;-73
2022/04/08 03:35:53;;;;;;;10.77;3.47;;;4.00;99.90;;;;;;5051544;28;20044;-73
2022/04/08 03:38:18;;;;;;;8.60;1.95;;;3.90;99.90;;;;;;5051510;28;20044;-73
2022/04/08 03:40:44;;;;;;;11.68;1.85;;;3.90;99.90;;;;;;5052390;28;20498;-73
2022/04/08 03:43:10;;;;;;;17.38;2.25;;;4.00;99.90;;;;;;5051412;28;20036;-73
2022/04/08 03:45:35;;;;;;;9.88;2.42;;;4.00;99.90;;;;;;5051407;28;20626;-73
2022/04/08 03:48:02;;;;;;;8.20;2.67;;;4.00;99.90;;;;;;5052440;28;20071;-73
2022/04/08 03:50:27;;;;;;;4.57;1.70;;;4.00;99.90;;;;;;5051037;28;20033;-73
2022/04/08 03:52:53;;;;;;;7.20;1.63;;;4.00;99.90;;;;;;5051533;28;20040;-73
2022/04/08 03:55:19;;;;;;;7.20;1.90;;;4.00;99.90;;;;;;5051124;28;20032;-73
2022/04/08 03:57:45;;;;;;;11.82;2.08;;;4.00;99.90;;;;;;5051340;28;20201;-73
2022/04/08 04:00:10;;;;;;;6.38;1.80;;;4.00;99.90;;;;;;5050843;28;20083;-73
2022/04/08 04:02:36;;;;;;;5.82;1.40;;;4.00;99.90;;;;;;5051306;28;20048;-73
2022/04/08 04:05:03;;;;;;;11.52;1.55;;;4.10;99.90;;;;;;5051074;28;20490;-73
2022/04/08 04:07:28;;;;;;;5.68;1.77;;;4.10;99.90;;;;;;5050985;28;20041;-73
2022/04/08 04:09:54;;;;;;;8.75;1.60;;;4.20;99.90;;;;;;5034087;28;20060;-73
2022/04/08 04:12:20;;;;;;;4.43;1.17;;;4.20;99.90;;;;;;5050871;28;20116;-73
2022/04/08 04:14:45;;;;;;;5.93;1.80;;;4.00;99.90;;;;;;5050761;28;20045;-73
2022/04/08 04:17:11;;;;;;;7.93;2.20;;;3.90;99.90;;;;;;5050614;28;20036;-73
2022/04/08 04:19:37;;;;;;;3.38;1.00;;;3.90;99.90;;;;;;5050783;28;20051;-73
2022/04/08 04:22:03;;;;;;;4.20;1.40;;;3.80;99.90;;;;;;5051900;28;20036;-73
2022/04/08 04:24:29;;;;;;;4.30;1.38;;;3.70;99.90;;;;;;5050973;28;20383;-73
2022/04/08 04:26:55;;;;;;;4.15;1.73;;;3.70;99.90;;;;;;5066647;22;20051;-74
2022/04/08 04:29:20;;;;;;;7.72;2.38;;;3.60;99.90;;;;;;5031978;28;20041;-73
2022/04/08 04:31:46;;;;;;;8.23;1.65;;;3.60;99.90;;;;;;5031438;28;20068;-73
2022/04/08 04:34:12;;;;;;;7.53;1.65;;;3.60;99.90;;;;;;5014266;28;20523;-73
2022/04/08 04:36:38;;;;;;;4.63;1.60;;;3.60;99.90;;;;;;5031969;28;20038;-73
2022/04/08 04:39:03;;;;;;;5.63;1.60;;;3.60;99.90;;;;;;5030367;28;20112;-73
2022/04/08 04:41:29;;;;;;;2.42;1.60;;;3.60;99.90;;;;;;5031841;28;20518;-73
2022/04/08 04:43:54;;;;;;;5.90;1.83;;;3.60;99.90;;;;;;5031985;28;20033;-73
2022/04/08 04:46:20;;;;;;;2.53;1.73;;;3.50;99.90;;;;;;5031793;28;20045;-73
2022/04/08 04:48:45;;;;;;;4.45;1.40;;;3.60;99.90;;;;;;5031693;28;20048;-73
2022/04/08 04:51:13;;;;;;;7.80;2.00;;;3.60;99.90;;;;;;5030164;28;20049;-73
2022/04/08 04:53:39;;;;;;;7.45;1.70;;;3.60;99.90;;;;;;5031743;28;20043;-73
2022/04/08 04:56:04;;;;;;;4.22;1.85;;;3.60;99.90;;;;;;5031834;28;20414;-73
2022/04/08 04:58:30;;;;;;;3.33;1.20;;;3.50;99.90;;;;;;5031540;28;20111;-74
2022/04/08 05:00:56;;;;;;;7.65;1.98;;;3.60;99.90;;;;;;5030102;28;20046;-73
2022/04/08 05:03:21;;;;;;;3.95;1.55;;;3.60;99.90;;;;;;5031780;28;20438;-73
2022/04/08 05:05:47;;;;;;;5.30;2.28;;;3.60;99.90;;;;;;5031718;28;20056;-73
2022/04/08 05:08:12;;;;;;;6.82;2.13;;;3.60;99.90;;;;;;5031285;28;20037;-73
2022/04/08 05:10:38;;;;;;;9.07;1.95;;;3.70;99.90;;;;;;5030229;28;20045;-74
2022/04/08 05:13:04;;;;;;;4.63;1.65;;;3.70;99.90;;;;;;5031688;28;20037;-73
2022/04/08 05:15:32;;;;;;;7.53;1.75;;;3.60;99.90;;;;;;5031770;28;20445;-73
2022/04/08 05:17:59;;;;;;;3.35;1.60;;;3.70;99.90;;;;;;5030228;28;20049;-73
2022/04/08 05:20:24;;;;;;;6.68;1.85;;;3.70;99.90;;;;;;5030084;28;20037;-73
2022/04/08 05:22:50;;;;;;;4.75;1.42;;;3.70;99.90;;;;;;5031375;28;20037;-73
2022/04/08 05:25:15;;;;;;;2.60;1.40;;;3.70;99.90;;;;;;5030300;28;20040;-74
2022/04/08 05:27:42;;;;;;;4.53;1.50;;;3.80;99.90;;;;;;5031328;28;20041;-73
2022/04/08 05:30:12;;;;;;;4.55;1.58;;;3.90;99.90;;;;;;5031121;28;20038;-73
2022/04/08 05:32:38;;;;;;;6.15;1.33;;;4.00;99.90;;;;;;5030170;28;20509;-73
2022/04/08 05:35:04;;;;;;;3.50;1.40;;;4.00;99.90;;;;;;5031299;28;20073;-73
2022/04/08 05:37:29;;;;;;;3.92;1.52;;;4.10;99.90;;;;;;5031070;28;20041;-73
2022/04/08 05:39:56;;;;;;;4.20;1.65;;;4.10;99.90;;;;;;5030958;28;20049;-75
2022/04/08 05:42:21;;;;;;;3.15;1.90;;;4.10;99.90;;;;;;5031546;28;20047;-73
2022/04/08 05:44:47;;;;;;;5.25;1.63;;;4.20;99.90;;;;;;5030081;28;20077;-73
2022/04/08 05:47:13;;;;;;;2.40;1.50;;;4.20;99.90;;;;;;5031126;28;20038;-73
2022/04/08 05:49:39;;;;;;;7.82;2.15;;;4.30;99.90;;;;;;5029608;28;20099;-73
2022/04/08 05:52:04;;;;;;;4.82;2.13;;;4.30;99.90;;;;;;5031019;28;20044;-73
2022/04/08 05:54:31;;;;;;;4.70;2.15;;;4.30;99.90;;;;;;5031163;28;20060;-73
2022/04/08 05:57:00;;;;;;;4.85;2.40;;;4.40;99.90;;;;;;5034501;28;20041;-73
2022/04/08 05:59:29;;;;;;;4.75;2.00;;;4.40;99.90;;;;;;5034540;28;20526;-73
2022/04/08 06:01:55;;;;;;;7.50;2.22;;;4.40;99.90;;;;;;5034205;28;20056;-73
2022/04/08 06:04:21;;;;;;;4.97;1.83;;;4.50;99.90;;;;;;5033356;28;20041;-73
2022/04/08 06:06:47;;;;;;;12.82;2.55;;;4.70;99.90;;;;;;5034695;28;20041;-73
2022/04/08 06:09:13;;;;;;;4.72;2.17;;;4.60;99.90;;;;;;5034514;28;20184;-73
2022/04/08 06:11:38;;;;;;;4.35;1.92;;;4.60;99.90;;;;;;5034243;28;20387;-73
2022/04/08 06:14:04;;;;;;;6.30;3.08;;;4.70;99.90;;;;;;5034306;28;20038;-73
2022/04/08 06:16:30;;;;;;;4.72;1.88;;;4.80;99.90;;;;;;5034351;28;20108;-74
2022/04/08 06:18:58;;;;;;;7.47;2.67;;;5.00;99.90;;;;;;5032973;28;20403;-73
2022/04/08 06:21:23;;;;;;;6.57;2.47;;;5.30;99.90;;;;;;5034190;28;20044;-73
2022/04/08 06:23:50;;;;;;;4.68;1.65;;;5.50;99.90;;;;;;5039149;28;20033;-72
2022/04/08 06:26:15;;;;;;;7.68;1.88;;;5.80;99.90;;;;;;5040621;28;20120;-73
2022/04/08 06:28:41;;;;;;;5.88;2.30;;;5.90;99.90;;;;;;5034400;28;20579;-73
2022/04/08 06:31:07;;;;;;;6.25;2.03;;;6.20;99.90;;;;;;5034014;28;20044;-72
2022/04/08 06:33:33;;;;;;;8.27;2.03;;;6.20;99.90;;;;;;5034166;28;20037;-72
2022/04/08 06:36:00;;;;;;;5.57;1.90;;;6.40;99.90;;;;;;5034202;28;20059;-73
2022/04/08 06:38:25;;;;;;;4.35;1.52;;;6.60;99.90;;;;;;5034082;28;20507;-73
2022/04/08 06:40:51;;;;;;;6.25;1.73;;;6.70;99.90;;;;;;5033778;28;20049;-73
2022/04/08 06:43:16;;;;;;;3.97;1.80;;;6.70;99.90;;;;;;5033911;28;20056;-72
2022/04/08 06:45:42;;;;;;;3.13;1.40;;;6.90;99.90;;;;;;5033888;28;20037;-71
2022/04/08 06:48:08;;;;;;;5.05;1.50;;;7.00;99.90;;;;;;5033656;28;20060;-72
2022/04/08 06:50:34;;;;;;;5.60;1.80;;;7.10;99.90;;;;;;5033581;28;20173;-72
2022/04/08 06:53:00;;;;;;;6.93;2.10;;;7.10;99.90;;;;;;5031788;28;20116;-72
2022/04/08 06:55:27;;;;;;;3.75;2.03;;;7.30;99.90;;;;;;5033189;28;20406;-72
2022/04/08 06:57:52;;;;;;;11.30;2.00;;;7.30;99.90;;;;;;5033208;28;20033;-72
2022/04/08 07:00:18;;;;;;;5.38;2.15;;;7.40;99.90;;;;;;5032813;28;20068;-71
2022/04/08 07:02:43;;;;;;;2.28;1.60;;;7.50;99.90;;;;;;5033184;28;20033;-71
2022/04/08 07:05:10;;;;;;;3.05;1.63;;;7.70;99.90;;;;;;5033705;28;20131;-72
2022/04/08 07:07:36;;;;;;;9.35;2.33;;;7.80;99.90;;;;;;5031922;28;20045;-72
2022/04/08 07:10:04;;;;;;;7.60;2.88;;;7.90;99.90;;;;;;5032727;28;20526;-74
2022/04/08 07:12:29;;;;;;;3.05;1.50;;;8.00;99.90;;;;;;5033303;28;20124;-74
2022/04/08 07:14:56;;;;;;;4.00;2.10;;;7.90;99.90;;;;;;5032843;28;20061;-74
2022/04/08 07:17:31;;;;;;;5.50;1.92;;;7.90;99.90;;;;;;5031041;28;20039;-74
2022/04/08 07:19:57;;;;;;;3.35;1.85;;;7.90;99.90;;;;;;5032497;28;20092;-75
2022/04/08 07:22:24;;;;;;;4.88;1.77;;;8.00;99.90;;;;;;5032940;28;20045;-74
2022/04/08 07:24:50;;;;;;;5.28;1.90;;;8.10;99.90;;;;;;5031149;28;20069;-72
2022/04/08 07:27:17;;;;;;;3.83;1.70;;;8.20;99.90;;;;;;5032377;28;20041;-72
2022/04/08 07:29:43;;;;;;;9.10;2.17;;;8.30;99.90;;;;;;5032901;28;20117;-72
2022/04/08 07:32:09;;;;;;;4.82;2.00;;;8.40;99.90;;;;;;5032944;28;20677;-73
2022/04/08 07:34:36;;;;;;;5.40;2.22;;;8.50;99.90;;;;;;5033088;28;20048;-73
2022/04/08 07:37:02;;;;;;;9.98;2.45;;;8.50;99.90;;;;;;5031475;28;20042;-74
2022/04/08 07:39:28;;;;;;;7.25;2.25;;;8.60;99.90;;;;;;5032895;28;20057;-73
2022/04/08 07:41:53;;;;;;;4.78;1.98;;;8.80;99.90;;;;;;5032401;28;20045;-73
2022/04/08 07:44:19;;;;;;;4.85;2.03;;;8.80;99.90;;;;;;5031800;28;20049;-73
2022/04/08 07:46:44;;;;;;;6.47;1.83;;;8.80;99.90;;;;;;5032994;28;20041;-73
2022/04/08 07:49:10;;;;;;;4.28;1.85;;;8.70;99.90;;;;;;5032814;28;20050;-73
2022/04/08 07:51:35;;;;;;;6.70;1.85;;;8.90;99.90;;;;;;5031397;28;20030;-73
2022/04/08 07:54:01;;;;;;;4.68;1.50;;;8.70;99.90;;;;;;5032769;28;20099;-73
2022/04/08 07:56:27;;;;;;;5.80;1.35;;;8.20;99.90;;;;;;5031719;28;20164;-72
2022/04/08 07:58:53;;;;;;;6.82;1.77;;;7.90;99.90;;;;;;5032653;28;20041;-73
2022/04/08 08:01:18;;;;;;;4.95;1.60;;;7.50;99.90;;;;;;5032599;28;20458;-73
2022/04/08 08:03:45;;;;;;;6.78;1.60;;;7.30;99.90;;;;;;5032695;28;20538;-75
2022/04/08 08:06:11;;;;;;;6.43;1.70;;;7.10;99.90;;;;;;5032545;28;20044;-73
2022/04/08 08:08:37;;;;;;;6.97;1.73;;;7.00;99.90;;;;;;5032344;28;20038;-73
2022/04/08 08:11:10;;;;;;;5.65;2.20;;;7.20;99.90;;;;;;5031612;28;20037;-73
2022/04/08 08:13:35;;;;;;;5.60;1.67;;;7.60;99.90;;;;;;5031951;28;20033;-73
2022/04/08 08:16:01;;;;;;;6.25;2.65;;;7.70;99.90;;;;;;5031879;28;20398;-73
2022/04/08 08:18:27;;;;;;;7.43;3.30;;;7.60;99.90;;;;;;5031553;28;20223;-73
2022/04/08 08:20:52;;;;;;;5.60;1.65;;;7.50;99.90;;;;;;5031290;28;20045;-74
2022/04/08 08:23:18;;;;;;;5.28;1.90;;;7.40;99.90;;;;;;5032624;28;20049;-72
2022/04/08 08:25:44;;;;;;;7.45;2.40;;;7.30;99.90;;;;;;5032630;28;20040;-73
2022/04/08 08:28:10;;;;;;;7.00;2.15;;;7.20;99.90;;;;;;5031285;28;20052;-73
2022/04/08 08:30:38;;;;;;;3.67;2.22;;;7.10;99.90;;;;;;5034016;28;20038;-73
2022/04/08 08:33:06;;;;;;;4.22;2.17;;;7.30;99.90;;;;;;5034197;28;20048;-73
2022/04/08 08:35:32;;;;;;;9.50;2.92;;;7.90;99.90;;;;;;5033862;28;20060;-73
2022/04/08 08:37:59;;;;;;;8.35;1.95;;;8.10;99.90;;;;;;5032569;28;20411;-71
2022/04/08 08:40:24;;;;;;;7.22;2.90;;;8.40;99.90;;;;;;5032354;28;20041;-70
2022/04/08 08:42:50;;;;;;;4.28;2.25;;;8.80;99.90;;;;;;5032582;28;20536;-70
2022/04/08 08:45:17;;;;;;;5.80;2.22;;;9.20;99.90;;;;;;5031897;28;20038;-71
2022/04/08 08:47:47;;;;;;;7.82;2.28;;;9.30;99.90;;;;;;5031119;28;20704;-71
2022/04/08 08:50:12;;;;;;;3.67;1.98;;;9.30;99.90;;;;;;5029488;28;20199;-70
2022/04/08 08:52:41;;;;;;;12.35;2.55;;;9.50;99.90;;;;;;5031116;28;20045;-71
2022/04/08 08:55:07;;;;;;;7.93;2.13;;;9.50;99.90;;;;;;5029604;28;20033;-71
2022/04/08 08:57:34;;;;;;;4.32;1.60;;;9.20;99.90;;;;;;5031322;28;20037;-71
2022/04/08 09:00:13;;;;;;;4.70;1.30;;;9.00;99.90;;;;;;5030995;28;20050;-72
2022/04/08 09:02:40;;;;;;;5.57;1.60;;;8.70;99.90;;;;;;5031362;28;20034;-71
2022/04/08 09:05:26;;;;;;;5.40;2.03;;;8.40;99.90;;;;;;5031269;28;20052;-73
2022/04/08 09:07:59;;;;;;;7.22;2.00;;;8.30;99.90;;;;;;5010026;28;20137;-72
2022/04/08 09:10:26;;;;;;;6.85;1.67;;;8.30;99.90;;;;;;5010335;28;20096;-73
2022/04/08 09:12:56;;;;;;;9.20;1.50;;;8.40;99.90;;;;;;5014493;28;20044;-72
2022/04/08 09:15:22;;;;;;;8.18;1.40;;;8.60;99.90;;;;;;5030043;28;20038;-73
2022/04/08 09:17:47;;;;;;;10.95;1.67;;;8.60;99.90;;;;;;5029592;28;20064;-72
2022/04/08 09:20:13;;;;;;;11.05;1.90;;;8.60;99.90;;;;;;5030957;28;20427;-72
2022/04/08 09:22:38;;;;;;;3.30;1.70;;;8.90;99.90;;;;;;5031613;28;20095;-72
2022/04/08 09:25:12;;;;;;;6.68;1.38;;;9.20;99.90;;;;;;5030454;28;20048;-72
2022/04/08 09:27:44;;;;;;;5.68;1.40;;;9.20;99.90;;;;;;5031395;28;20064;-72
2022/04/08 09:30:09;;;;;;;4.05;1.10;;;9.20;99.90;;;;;;5030602;28;20033;-72
2022/04/08 09:32:36;;;;;;;4.65;1.20;;;9.00;99.90;;;;;;5017534;28;20034;-72
2022/04/08 09:35:03;;;;;;;4.50;1.30;;;8.80;99.90;;;;;;5035418;28;20047;-72
2022/04/08 09:37:29;;;;;;;7.22;2.42;;;8.50;99.90;;;;;;5035200;28;20044;-72
2022/04/08 09:39:58;;;;;;;8.00;1.92;;;8.40;99.90;;;;;;5034956;28;20099;-73
2022/04/08 09:42:29;;;;;;;2.72;1.48;;;8.40;99.90;;;;;;5034703;28;20046;-72
2022/04/08 09:44:55;;;;;;;4.53;1.80;;;8.50;99.90;;;;;;5035075;28;20072;-72
2022/04/08 09:47:21;;;;;;;8.73;1.60;;;8.70;99.90;;;;;;5034794;28;20073;-72
2022/04/08 09:49:46;;;;;;;8.20;1.45;;;8.80;99.90;;;;;;5034805;28;20046;-75
2022/04/08 09:52:16;;;;;;;4.55;1.25;;;8.80;99.90;;;;;;5016827;28;20030;-74
2022/04/08 09:54:44;;;;;;;4.40;1.38;;;8.60;99.90;;;;;;5035033;28;20041;-74
2022/04/08 09:57:18;;;;;;;3.30;0.93;;;8.20;99.90;;;;;;5034598;28;20041;-74
2022/04/08 09:59:46;;;;;;;4.03;1.52;;;7.70;99.90;;;;;;5034416;28;20550;-74
2022/04/08 10:02:14;;;;;;;2.05;0.93;;;7.50;99.90;;;;;;5034310;28;20133;-74
2022/04/08 10:04:40;;;;;;;3.80;1.27;;;7.30;99.90;;;;;;5034527;28;20139;-74
2022/04/08 10:07:06;;;;;;;3.42;0.90;;;7.20;99.90;;;;;;5034357;28;20465;-74
2022/04/08 10:09:41;;;;;;;6.15;1.15;;;7.10;99.90;;;;;;5034231;28;20537;-74
2022/04/08 10:12:23;;;;;;;4.07;1.08;;;7.00;99.90;;;;;;5033975;28;20064;-75
2022/04/08 10:15:13;;;;;;;1.88;1.00;;;7.10;99.90;;;;;;5034435;28;20080;-74
2022/04/08 10:17:38;;;;;;;4.97;1.27;;;7.30;99.90;;;;;;5034163;28;20045;-74
2022/04/08 10:20:21;;;;;;;5.70;1.60;;;7.50;99.90;;;;;;5033655;28;20052;-73
2022/04/08 10:22:47;;;;;;;4.47;1.30;;;8.00;99.90;;;;;;5033956;28;20399;-72
2022/04/08 10:25:17;;;;;;;2.78;1.10;;;8.20;99.90;;;;;;5034367;28;20564;-71
2022/04/08 10:27:44;;;;;;;3.80;1.80;;;8.30;99.90;;;;;;5065323;22;20041;-74
2022/04/08 10:30:24;;;;;;;9.57;1.73;;;8.40;99.90;;;;;;5049968;28;20045;-75
2022/04/08 10:33:00;;;;;;;6.80;1.83;;;8.70;99.90;;;;;;5049153;28;20193;-75
2022/04/08 10:35:26;;;;;;;7.55;1.70;;;8.70;99.90;;;;;;5052582;28;20048;-75
2022/04/08 10:38:04;;;;;;;3.88;1.10;;;8.50;99.90;;;;;;5051399;28;20484;-75
2022/04/08 10:40:35;;;;;;;4.60;1.27;;;8.50;99.90;;;;;;5051790;28;20041;-76
2022/04/08 10:43:08;;;;;;;4.60;1.63;;;8.40;99.90;;;;;;5053599;28;20048;-76
2022/04/08 10:45:34;;;;;;;;;;;8.30;99.90;;;;;;5052984;28;20055;-75
2022/04/08 10:48:09;;;;;;;2.65;1.17;;;8.30;99.90;;;;;;5052512;28;20279;-75
2022/04/08 10:50:35;;;;;;;6.90;1.25;;;8.30;99.90;;;;;;5051623;28;20132;-75
2022/04/08 10:53:05;;;;;;;4.93;1.15;;;8.40;99.90;;;;;;5051850;28;20143;-75
2022/04/08 10:55:31;;;;;;;6.18;2.05;;;8.60;99.90;;;;;;5051913;28;20049;-75
2022/04/08 10:57:58;;;;;;;7.22;1.90;;;8.80;99.90;;;;;;5049019;28;20038;-75
2022/04/08 11:00:25;;;;;;;4.40;1.50;;;9.10;99.90;;;;;;5046886;28;20105;-75
2022/04/08 11:02:54;;;;;;;5.80;1.67;;;9.20;99.90;;;;;;5049165;28;20494;-75
2022/04/08 11:05:20;;;;;;;5.95;1.40;;;9.20;99.90;;;;;;5037304;28;20072;-75
2022/04/08 11:07:48;;;;;;;5.53;1.50;;;9.30;99.90;;;;;;5042209;28;20033;-75
2022/04/08 11:10:19;;;;;;;6.30;1.75;;;9.10;99.90;;;;;;5051054;28;20044;-76
2022/04/08 11:12:47;;;;;;;5.57;1.20;;;8.80;99.90;;;;;;5051800;28;20048;-75
2022/04/08 11:15:17;;;;;;;7.90;1.67;;;8.70;99.90;;;;;;5051903;28;20040;-76
2022/04/08 11:17:45;;;;;;;3.33;1.45;;;8.60;99.90;;;;;;5034424;28;20079;-75
2022/04/08 11:20:13;;;;;;;2.70;1.45;;;8.50;99.90;;;;;;5050803;28;20418;-75
2022/04/08 11:22:40;;;;;;;2.75;1.10;;;8.30;99.90;;;;;;5048693;28;20045;-75
2022/04/08 11:25:06;;;;;;;7.03;1.10;;;8.30;99.90;;;;;;5034444;28;20099;-75
2022/04/08 11:27:32;;;;;;;4.47;2.03;;;8.40;99.90;;;;;;5050693;28;20037;-75
2022/04/08 11:29:57;;;;;;;5.45;1.85;;;8.40;99.90;;;;;;5050559;28;20043;-75
2022/04/08 11:32:30;;;;;;;5.68;1.63;;;8.40;99.90;;;;;;5030026;28;20575;-75
2022/04/08 11:34:56;;;;;;;8.70;2.38;;;8.60;99.90;;;;;;5043286;28;20038;-73
2022/04/08 11:37:28;;;;;;;7.72;1.60;;;8.60;99.90;;;;;;5032026;28;20491;-74
2022/04/08 11:39:58;;;;;;;7.28;1.75;;;8.60;99.90;;;;;;5031550;28;20179;-73
2022/04/08 11:42:25;;;;;;;5.97;1.52;;;8.40;99.90;;;;;;5031664;28;20077;-74
2022/04/08 11:44:51;;;;;;;8.88;1.90;;;8.50;99.90;;;;;;5033154;28;20049;-74
2022/04/08 11:47:17;;;;;;;6.43;1.73;;;8.60;99.90;;;;;;5031386;28;20517;-74
2022/04/08 11:49:43;;;;;;;7.85;1.80;;;8.80;99.90;;;;;;5041659;28;20514;-75
2022/04/08 11:52:09;;;;;;;4.35;1.20;;;9.00;99.90;;;;;;5033251;28;20096;-74
2022/04/08 11:54:40;;;;;;;6.82;1.70;;;8.90;99.90;;;;;;5030742;28;20049;-75
2022/04/08 11:57:07;;;;;;;3.67;2.17;;;8.80;99.90;;;;;;5031237;28;20499;-75
2022/04/08 11:59:34;;;;;;;5.78;1.33;;;8.80;99.90;;;;;;5031349;28;20041;-75
2022/04/08 12:02:00;;;;;;;6.30;1.60;;;8.70;99.90;;;;;;5032068;28;20402;-74
2022/04/08 12:04:27;;;;;;;4.80;1.02;;;8.80;99.90;;;;;;5031526;28;20517;-74
2022/04/08 12:06:52;;;;;;;4.97;0.98;;;9.00;99.90;;;;;;5031099;28;20045;-74
2022/04/08 12:09:20;;;;;;;8.98;1.52;;;9.20;99.90;;;;;;5032517;28;20120;-76
2022/04/08 12:11:47;;;;;;;5.03;0.95;;;9.20;99.90;;;;;;5032393;28;20052;-73
2022/04/08 12:14:14;;;;;;;5.82;1.10;;;9.10;99.90;;;;;;5032553;28;20034;-74
2022/04/08 12:16:42;;;;;;;5.15;1.95;;;9.10;99.90;;;;;;5032304;28;20048;-74
2022/04/08 12:19:09;;;;;;;5.10;1.80;;;9.10;99.90;;;;;;5031094;28;20095;-74
2022/04/08 12:21:39;;;;;;;5.75;1.67;;;9.20;99.90;;;;;;5030803;28;20454;-73
2022/04/08 12:24:07;;;;;;;5.55;1.40;;;9.20;99.90;;;;;;5032607;28;20405;-74
2022/04/08 12:26:35;;;;;;;4.60;1.30;;;9.30;99.90;;;;;;5031148;28;20462;-74
2022/04/08 12:29:06;;;;;;;4.90;1.58;;;9.10;99.90;;;;;;5030794;28;20045;-74
2022/04/08 12:31:32;;;;;;;8.20;2.15;;;8.80;99.90;;;;;;5034525;28;20498;-73
2022/04/08 12:33:57;;;;;;;5.05;1.10;;;8.60;99.90;;;;;;5033819;28;20083;-74
2022/04/08 12:36:23;;;;;;;4.57;1.48;;;8.40;99.90;;;;;;5014272;28;20040;-74
2022/04/08 12:38:48;;;;;;;9.57;2.25;;;8.40;99.90;;;;;;5030732;28;20042;-74
2022/04/08 12:41:14;;;;;;;6.90;1.48;;;8.60;99.90;;;;;;5013907;28;20041;-74
2022/04/08 12:43:40;;;;;;;7.10;1.40;;;8.70;99.90;;;;;;5030864;28;20049;-74
2022/04/08 12:46:06;;;;;;;6.22;1.17;;;8.80;99.90;;;;;;5031870;28;20045;-73
2022/04/08 12:48:32;;;;;;;3.47;1.17;;;8.90;99.90;;;;;;5030360;28;20121;-74
2022/04/08 12:50:58;;;;;;;4.40;1.20;;;8.90;99.90;;;;;;5031645;28;20088;-74
2022/04/08 12:53:28;;;;;;;5.65;1.20;;;9.00;99.90;;;;;;5033211;28;20051;-73